Bagdad, Louisiana
Current Conditions -  °F | °C
As of 10:53 AM on Saturday 22 Nov 2014 (Local Time) from KAEX Reporting Station
Clear Clear  
Wind Chill: 68°   Ceiling: Unl
Heat Index: 68°   Visibility: 10mi
Dew Point: 54°   Wind: 14mph
Humidity: 61%   Direction: 120°ESE
Pressure: 30.13"   Gusts: NA
Location:  31.503°N, 92.6476°W
Report Text: KAEX 221653Z 12012KT 10SM CLR 20/12 A3013 RMK AO2 SLP207 T02000122
Loading
Personal Weather Stations






























Interactive Weather Map New forecast layout! Learn more

10-Day Weather Forecast

Advertisements
Track Severe Weather on mobile